Raven's Dance — WDF7230 — position and weather

sailwx.info

Track history (hours):
 
Tides and Currents Weather Stations Pressure Air Temp Water Temp Dewpoint Dewpoint Depression Visibility Wind Speed Wind Dir Waves Ship Positions

Raven's Dance

Owner: Lassila, Donald A, Gig Harbor, WA. More information available from US FCC via Universal Licensing System and Coast Guard Vessel Documentation Center.

Last reported at 2015-Jul-07 10:22 UTC. Time now 2015-Jul-07 11:05 UTC.
Position N 47°41' W 122°24'.

Length 14 m.

Type: Sailing vessel. MMSI: 367482370.

Date/timePositionNaut miles runAvg speedWind from/ knotsBaromVisibWave heightAir tempDewpointWater temp
2015-Jul-07 10:22N 47°41' W 122°24'0 0.0
2015-Jul-07 09:31N 47°41' W 122°24'0 0.0
2015-Jul-07 08:31N 47°41' W 122°24'0 0.0
2015-Jul-07 07:31N 47°41' W 122°24'0 0.0
2015-Jul-07 06:31N 47°41' W 122°24'0 0.0
2015-Jul-07 05:31N 47°41' W 122°24'0 0.0
2015-Jul-07 04:28N 47°41' W 122°24'0 0.0
2015-Jul-07 03:31N 47°41' W 122°24'0 0.0
2015-Jul-07 02:25N 47°41' W 122°24'0 0.0
2015-Jul-07 01:31N 47°41' W 122°24'0 0.0
2015-Jul-07 00:31N 47°41' W 122°24'0 0.0
2015-Jul-06 22:16N 47°41' W 122°24'0 0.0
2015-Jul-06 21:31N 47°41' W 122°24'0 0.0
2015-Jul-06 20:28N 47°41' W 122°24'0 0.0
2015-Jul-06 19:28N 47°41' W 122°24'0 0.0
2015-Jul-06 18:31N 47°41' W 122°24'0 0.0
2015-Jul-06 17:31N 47°41' W 122°24'0 0.0
2015-Jul-06 16:31N 47°41' W 122°24'0 0.0
2015-Jul-06 15:31N 47°41' W 122°24'0 0.0
2015-Jul-06 14:31N 47°41' W 122°24'0 0.0
2015-Jul-06 13:31N 47°41' W 122°24'0 0.0
2015-Jul-06 12:31N 47°41' W 122°24'0 0.0
2015-Jul-06 11:28N 47°41' W 122°24'0 0.0
2015-Jul-06 10:31N 47°41' W 122°24'0 0.0
2015-Jul-06 09:31N 47°41' W 122°24'0 0.0
2015-Jul-06 08:31N 47°41' W 122°24'0 0.0
2015-Jul-06 07:31N 47°41' W 122°24'0 0.0
2015-Jul-06 06:28N 47°41' W 122°24'0 0.0
2015-Jul-06 05:31N 47°41' W 122°24'0 0.0
2015-Jul-05 23:04N 47°41' W 122°24'0 0.0
2015-Jul-05 22:31N 47°41' W 122°24'0 0.1
2015-Jul-05 21:31N 47°41' W 122°24'0 0.0
2015-Jul-05 20:31N 47°41' W 122°24'0 0.0
2015-Jul-05 19:31N 47°41' W 122°24'1 1.1
2015-Jul-05 18:33N 47°40' W 122°24'2 1.7
2015-Jul-05 17:30N 47°39' W 122°21'1 0.5
2015-Jul-05 14:23N 47°38' W 122°20'0 0.0
2015-Jul-05 13:32N 47°38' W 122°20'0 0.0
2015-Jul-05 12:32N 47°38' W 122°20'0 0.0
2015-Jul-05 11:29N 47°38' W 122°20'0 0.0
2015-Jul-05 10:32N 47°38' W 122°20'0 0.0
2015-Jul-05 08:32N 47°38' W 122°20'0 0.0
2015-Jul-05 03:22N 47°38' W 122°20'0 0.0
2015-Jul-04 23:04N 47°38' W 122°20'0 0.4
2015-Jul-04 22:33N 47°38' W 122°20'0 0.2
2015-Jul-04 21:32N 47°38' W 122°20'4 1.4
2015-Jul-04 19:05N 47°40' W 122°24'3 4.8
2015-Jul-04 18:33N 47°42' W 122°27'6 5.6
2015-Jul-04 17:32N 47°41' W 122°36'0 0.0
2015-Jul-03 22:15N 47°41' W 122°36'5 6.9
2015-Jul-03 21:33N 47°36' W 122°35'4 4.3
2015-Jul-03 20:31N 47°32' W 122°39'0 0.0
2015-Jul-03 19:31N 47°32' W 122°39'0 0.0
2015-Jul-03 18:28N 47°32' W 122°39'0 0.0
2015-Jul-03 17:31N 47°32' W 122°39'0 0.0
2015-Jul-03 16:31N 47°32' W 122°39'0 0.0
2015-Jul-03 15:31N 47°32' W 122°39'0 0.0
2015-Jul-03 14:31N 47°32' W 122°39'0 0.0
2015-Jul-03 13:31N 47°32' W 122°39'0 0.0
2015-Jul-03 12:31N 47°32' W 122°39'0 0.0
2015-Jul-03 11:31N 47°32' W 122°39'0 0.0
2015-Jul-03 10:31N 47°32' W 122°39'0 0.0
2015-Jul-03 09:31N 47°32' W 122°39'0 0.0
2015-Jul-03 08:31N 47°32' W 122°39'0 0.0
2015-Jul-03 07:31N 47°32' W 122°39'0 0.0
2015-Jul-03 06:31N 47°32' W 122°39'0 0.0
2015-Jul-03 05:31N 47°32' W 122°39'0 0.0
2015-Jul-03 04:31N 47°32' W 122°39'0 0.0
2015-Jul-03 03:31N 47°32' W 122°39'0 0.0
2015-Jul-03 02:31N 47°32' W 122°39'0 0.0
2015-Jul-03 01:31N 47°32' W 122°39'0 0.0
2015-Jul-03 00:31N 47°32' W 122°39'0 0.0
2015-Jul-02 23:31N 47°32' W 122°39'0 0.0
2015-Jul-02 22:31N 47°32' W 122°39'0 0.0
2015-Jul-02 21:31N 47°32' W 122°39'0 0.0
2015-Jul-02 20:31N 47°32' W 122°39'0 0.0
2015-Jul-02 19:31N 47°32' W 122°39'0 0.0
2015-Jul-02 18:31N 47°32' W 122°39'0 0.0
2015-Jul-02 17:31N 47°32' W 122°39'0 0.0
2015-Jul-02 16:31N 47°32' W 122°39'0 0.0
2015-Jul-02 15:31N 47°32' W 122°39'0 0.0
2015-Jul-02 14:28N 47°32' W 122°39'0 0.0
2015-Jul-02 13:31N 47°32' W 122°39'0 0.0
2015-Jul-02 12:31N 47°32' W 122°39'0 0.0
2015-Jul-02 11:31N 47°32' W 122°39'0 0.0
2015-Jul-02 10:31N 47°32' W 122°39'0 0.0
2015-Jul-02 09:31N 47°32' W 122°39'0 0.0
2015-Jul-02 08:31N 47°32' W 122°39'0 0.0
2015-Jul-02 07:31N 47°32' W 122°39'0 0.0
2015-Jul-02 06:31N 47°32' W 122°39'0 0.0
2015-Jul-02 05:31N 47°32' W 122°39'0 0.0
2015-Jul-02 04:31N 47°32' W 122°39'0 0.0
2015-Jul-02 03:31N 47°32' W 122°39'0 0.0
2015-Jul-02 02:31N 47°32' W 122°39'0 0.0
2015-Jul-02 01:31N 47°32' W 122°39'0 0.0
2015-Jul-02 00:31N 47°32' W 122°39'0 0.0
2015-Jul-01 23:31N 47°32' W 122°39'0 0.0
2015-Jul-01 22:31N 47°32' W 122°39'0 0.0
2015-Jul-01 21:31N 47°32' W 122°39'0 0.0
2015-Jul-01 20:31N 47°32' W 122°39'0 0.0
2015-Jul-01 19:31N 47°32' W 122°39'0 0.0
2015-Jul-01 18:31N 47°32' W 122°39'0 0.0
2015-Jul-01 17:31N 47°32' W 122°39'0 0.0
2015-Jul-01 16:31N 47°32' W 122°39'0 0.0
2015-Jul-01 15:31N 47°32' W 122°39'0 0.0
2015-Jul-01 14:31N 47°32' W 122°39'0 0.0
2015-Jul-01 13:31N 47°32' W 122°39'0 0.0
2015-Jul-01 12:31N 47°32' W 122°39'0 0.0
2015-Jul-01 11:31N 47°32' W 122°39'0 0.0
2015-Jul-01 10:31N 47°32' W 122°39'0 0.0
2015-Jul-01 09:31N 47°32' W 122°39'0 0.0
2015-Jul-01 08:31N 47°32' W 122°39'0 0.0
2015-Jul-01 07:31N 47°32' W 122°39'0 0.0
2015-Jul-01 06:31N 47°32' W 122°39'0 0.0
2015-Jul-01 05:31N 47°32' W 122°39'0 0.0
2015-Jul-01 04:31N 47°32' W 122°39'0 0.0
2015-Jul-01 03:31N 47°32' W 122°39'0 0.0
2015-Jul-01 02:31N 47°32' W 122°39'0 0.0
2015-Jul-01 01:49N 47°32' W 122°39'0 0.0
2015-Jul-01 01:31N 47°32' W 122°39'0 0.0
2015-Jul-01 00:31N 47°32' W 122°39'0 0.0
2015-Jul-01 00:28N 47°32' W 122°39'0 0.0
2015-Jun-30 23:31N 47°32' W 122°39'0 0.0
2015-Jun-30 23:07N 47°32' W 122°39'0 0.0
2015-Jun-30 22:31N 47°32' W 122°39'0 0.0
2015-Jun-30 21:31N 47°32' W 122°39'0 0.0
2015-Jun-30 20:31N 47°32' W 122°39'0 0.0
2015-Jun-30 19:31N 47°32' W 122°39'0 0.0
2015-Jun-30 18:31N 47°32' W 122°39'0 0.0
2015-Jun-30 17:31N 47°32' W 122°39'0 0.0
2015-Jun-30 16:31N 47°32' W 122°39'0 0.0
2015-Jun-30 15:31N 47°32' W 122°39'0 0.0
2015-Jun-30 14:31N 47°32' W 122°39'0 0.0
2015-Jun-30 13:31N 47°32' W 122°39'0 0.0
2015-Jun-30 12:31N 47°32' W 122°39'0 0.0
2015-Jun-30 11:31N 47°32' W 122°39'0 0.0
2015-Jun-30 10:31N 47°32' W 122°39'0 0.0
2015-Jun-30 09:31N 47°32' W 122°39'0 0.0
2015-Jun-30 08:31N 47°32' W 122°39'0 0.0
2015-Jun-30 07:52N 47°32' W 122°39'0 0.0
2015-Jun-30 07:31N 47°32' W 122°39'0 0.0
2015-Jun-30 06:52N 47°32' W 122°39'0 0.0
2015-Jun-30 06:31N 47°32' W 122°39'0 0.0
2015-Jun-30 06:22N 47°32' W 122°39'0 0.0
2015-Jun-30 05:31N 47°32' W 122°39'0 0.0
2015-Jun-30 04:31N 47°32' W 122°39'0 0.0
2015-Jun-30 03:46N 47°32' W 122°39'0 0.0
2015-Jun-30 03:31N 47°32' W 122°39'0 0.0
2015-Jun-30 02:31N 47°32' W 122°39'0 0.0
2015-Jun-30 01:31N 47°32' W 122°39'0 0.0
2015-Jun-30 00:31N 47°32' W 122°39'0 0.0
2015-Jun-29 23:31N 47°32' W 122°39'0 0.0
2015-Jun-29 23:25N 47°32' W 122°39'0 0.0
2015-Jun-29 22:31N 47°32' W 122°39'0 0.0
2015-Jun-29 21:31N 47°32' W 122°39'0 0.0
2015-Jun-29 20:52N 47°32' W 122°39'0 0.0
2015-Jun-29 20:31N 47°32' W 122°39'0 0.0
2015-Jun-29 20:22N 47°32' W 122°39'0 0.0
2015-Jun-29 19:31N 47°32' W 122°39'0 0.0
2015-Jun-29 18:31N 47°32' W 122°39'0 0.0
2015-Jun-29 17:31N 47°32' W 122°39'0 0.0
2015-Jun-29 16:31N 47°32' W 122°39'0 0.0
2015-Jun-29 15:31N 47°32' W 122°39'0 0.0
2015-Jun-29 15:16N 47°32' W 122°39'0 0.0
2015-Jun-29 14:31N 47°32' W 122°39'0 0.0
2015-Jun-29 13:31N 47°32' W 122°39'0 0.0
2015-Jun-29 12:28N 47°32' W 122°39'0 0.0
2015-Jun-29 11:31N 47°32' W 122°39'0 0.0
2015-Jun-29 10:31N 47°32' W 122°39'0 0.0
2015-Jun-29 09:55N 47°32' W 122°39'0 0.0
2015-Jun-29 09:31N 47°32' W 122°39'0 0.0
2015-Jun-29 09:10N 47°32' W 122°39'0 0.0
2015-Jun-29 08:31N 47°32' W 122°39'0 0.0
2015-Jun-29 08:25N 47°32' W 122°39'0 0.0
2015-Jun-29 07:31N 47°32' W 122°39'0 0.0
2015-Jun-29 06:31N 47°32' W 122°39'0 0.0
2015-Jun-29 05:31N 47°32' W 122°39'0 0.0
2015-Jun-29 04:31N 47°32' W 122°39'0 0.0
2015-Jun-29 03:31N 47°32' W 122°39'0 0.0
2015-Jun-29 02:31N 47°32' W 122°39'0 0.0
2015-Jun-29 01:28N 47°32' W 122°39'0 0.0
2015-Jun-29 00:31N 47°32' W 122°39'0 0.0
2015-Jun-28 23:31N 47°32' W 122°39'0 0.0
2015-Jun-28 22:28N 47°32' W 122°39'0 0.0
2015-Jun-28 21:31N 47°32' W 122°39'0 0.0
2015-Jun-28 20:31N 47°32' W 122°39'0 0.0
2015-Jun-28 19:31N 47°32' W 122°39'0 0.0
2015-Jun-28 18:28N 47°32' W 122°39'0 0.0
2015-Jun-28 17:31N 47°32' W 122°39'0 0.0
2015-Jun-28 16:31N 47°32' W 122°39'0 0.0
2015-Jun-28 15:31N 47°32' W 122°39'0 0.0
2015-Jun-28 14:31N 47°32' W 122°39'0 0.0
2015-Jun-28 13:31N 47°32' W 122°39'0 0.0
2015-Jun-28 12:31N 47°32' W 122°39'0 0.0
2015-Jun-28 11:31N 47°32' W 122°39'0 0.0
2015-Jun-28 10:31N 47°32' W 122°39'0 0.0
2015-Jun-28 09:31N 47°32' W 122°39'0 0.0
2015-Jun-28 08:31N 47°32' W 122°39'0 0.0
2015-Jun-28 07:31N 47°32' W 122°39'0 0.0
2015-Jun-28 06:31N 47°32' W 122°39'0 0.0
2015-Jun-28 05:28N 47°32' W 122°39'0 0.0
2015-Jun-28 04:31N 47°32' W 122°39'0 0.0
2015-Jun-28 03:31N 47°32' W 122°39'0 0.0
2015-Jun-28 02:31N 47°32' W 122°39'0 0.0
2015-Jun-28 01:31N 47°32' W 122°39'0 0.0
2015-Jun-28 00:31N 47°32' W 122°39'0 0.0
2015-Jun-28 00:13N 47°32' W 122°39'0 0.0
2015-Jun-27 23:31N 47°32' W 122°39'0 0.0
2015-Jun-27 22:31N 47°32' W 122°39'0 0.0
2015-Jun-27 21:31N 47°32' W 122°39'0 0.0
2015-Jun-27 20:31N 47°32' W 122°39'0 0.0
2015-Jun-27 19:25N 47°32' W 122°39'0 0.0
2015-Jun-27 18:31N 47°32' W 122°39'0 0.0
2015-Jun-27 17:31N 47°32' W 122°39'0 0.0
2015-Jun-27 16:31N 47°32' W 122°39'0 0.0
2015-Jun-27 15:31N 47°32' W 122°39'0 0.0
2015-Jun-27 14:31N 47°32' W 122°39'0 0.0
2015-Jun-27 13:31N 47°32' W 122°39'0 0.0
2015-Jun-27 12:31N 47°32' W 122°39'0 0.0
2015-Jun-27 11:31N 47°32' W 122°39'0 0.0
2015-Jun-27 10:31N 47°32' W 122°39'  
Track history (hours):
 
Tides and Currents Weather Stations Pressure Air Temp Water Temp Dewpoint Dewpoint Depression Visibility Wind Speed Wind Dir Waves Ship Positions

Raven's Dance

Owner: Lassila, Donald A, Gig Harbor, WA. More information available from US FCC via Universal Licensing System and Coast Guard Vessel Documentation Center.

Last reported at 2015-Jul-07 10:22 UTC. Time now 2015-Jul-07 11:05 UTC.
Position N 47°41' W 122°24'.

Length 14 m.

Type: Sailing vessel. MMSI: 367482370.

Date/timePositionNaut miles runAvg speedWind from/ knotsBaromVisibWave heightAir tempDewpointWater temp
2015-Jul-07 10:22N 47°41' W 122°24'0 0.0
2015-Jul-07 09:31N 47°41' W 122°24'0 0.0
2015-Jul-07 08:31N 47°41' W 122°24'0 0.0
2015-Jul-07 07:31N 47°41' W 122°24'0 0.0
2015-Jul-07 06:31N 47°41' W 122°24'0 0.0
2015-Jul-07 05:31N 47°41' W 122°24'0 0.0
2015-Jul-07 04:28N 47°41' W 122°24'0 0.0
2015-Jul-07 03:31N 47°41' W 122°24'0 0.0
2015-Jul-07 02:25N 47°41' W 122°24'0 0.0
2015-Jul-07 01:31N 47°41' W 122°24'0 0.0
2015-Jul-07 00:31N 47°41' W 122°24'0 0.0
2015-Jul-06 22:16N 47°41' W 122°24'0 0.0
2015-Jul-06 21:31N 47°41' W 122°24'0 0.0
2015-Jul-06 20:28N 47°41' W 122°24'0 0.0
2015-Jul-06 19:28N 47°41' W 122°24'0 0.0
2015-Jul-06 18:31N 47°41' W 122°24'0 0.0
2015-Jul-06 17:31N 47°41' W 122°24'0 0.0
2015-Jul-06 16:31N 47°41' W 122°24'0 0.0
2015-Jul-06 15:31N 47°41' W 122°24'0 0.0
2015-Jul-06 14:31N 47°41' W 122°24'0 0.0
2015-Jul-06 13:31N 47°41' W 122°24'0 0.0
2015-Jul-06 12:31N 47°41' W 122°24'0 0.0
2015-Jul-06 11:28N 47°41' W 122°24'0 0.0
2015-Jul-06 10:31N 47°41' W 122°24'0 0.0
2015-Jul-06 09:31N 47°41' W 122°24'0 0.0
2015-Jul-06 08:31N 47°41' W 122°24'0 0.0
2015-Jul-06 07:31N 47°41' W 122°24'0 0.0
2015-Jul-06 06:28N 47°41' W 122°24'0 0.0
2015-Jul-06 05:31N 47°41' W 122°24'0 0.0
2015-Jul-05 23:04N 47°41' W 122°24'0 0.0
2015-Jul-05 22:31N 47°41' W 122°24'0 0.1
2015-Jul-05 21:31N 47°41' W 122°24'0 0.0
2015-Jul-05 20:31N 47°41' W 122°24'0 0.0
2015-Jul-05 19:31N 47°41' W 122°24'1 1.1
2015-Jul-05 18:33N 47°40' W 122°24'2 1.7
2015-Jul-05 17:30N 47°39' W 122°21'1 0.5
2015-Jul-05 14:23N 47°38' W 122°20'0 0.0
2015-Jul-05 13:32N 47°38' W 122°20'0 0.0
2015-Jul-05 12:32N 47°38' W 122°20'0 0.0
2015-Jul-05 11:29N 47°38' W 122°20'0 0.0
2015-Jul-05 10:32N 47°38' W 122°20'0 0.0
2015-Jul-05 08:32N 47°38' W 122°20'0 0.0
2015-Jul-05 03:22N 47°38' W 122°20'0 0.0
2015-Jul-04 23:04N 47°38' W 122°20'0 0.4
2015-Jul-04 22:33N 47°38' W 122°20'0 0.2
2015-Jul-04 21:32N 47°38' W 122°20'4 1.4
2015-Jul-04 19:05N 47°40' W 122°24'3 4.8
2015-Jul-04 18:33N 47°42' W 122°27'6 5.6
2015-Jul-04 17:32N 47°41' W 122°36'0 0.0
2015-Jul-03 22:15N 47°41' W 122°36'5 6.9
2015-Jul-03 21:33N 47°36' W 122°35'4 4.3
2015-Jul-03 20:31N 47°32' W 122°39'0 0.0
2015-Jul-03 19:31N 47°32' W 122°39'0 0.0
2015-Jul-03 18:28N 47°32' W 122°39'0 0.0
2015-Jul-03 17:31N 47°32' W 122°39'0 0.0
2015-Jul-03 16:31N 47°32' W 122°39'0 0.0
2015-Jul-03 15:31N 47°32' W 122°39'0 0.0
2015-Jul-03 14:31N 47°32' W 122°39'0 0.0
2015-Jul-03 13:31N 47°32' W 122°39'0 0.0
2015-Jul-03 12:31N 47°32' W 122°39'0 0.0
2015-Jul-03 11:31N 47°32' W 122°39'0 0.0
2015-Jul-03 10:31N 47°32' W 122°39'0 0.0
2015-Jul-03 09:31N 47°32' W 122°39'0 0.0
2015-Jul-03 08:31N 47°32' W 122°39'0 0.0
2015-Jul-03 07:31N 47°32' W 122°39'0 0.0
2015-Jul-03 06:31N 47°32' W 122°39'0 0.0
2015-Jul-03 05:31N 47°32' W 122°39'0 0.0
2015-Jul-03 04:31N 47°32' W 122°39'0 0.0
2015-Jul-03 03:31N 47°32' W 122°39'0 0.0
2015-Jul-03 02:31N 47°32' W 122°39'0 0.0
2015-Jul-03 01:31N 47°32' W 122°39'0 0.0
2015-Jul-03 00:31N 47°32' W 122°39'0 0.0
2015-Jul-02 23:31N 47°32' W 122°39'0 0.0
2015-Jul-02 22:31N 47°32' W 122°39'0 0.0
2015-Jul-02 21:31N 47°32' W 122°39'0 0.0
2015-Jul-02 20:31N 47°32' W 122°39'0 0.0
2015-Jul-02 19:31N 47°32' W 122°39'0 0.0
2015-Jul-02 18:31N 47°32' W 122°39'0 0.0
2015-Jul-02 17:31N 47°32' W 122°39'0 0.0
2015-Jul-02 16:31N 47°32' W 122°39'0 0.0
2015-Jul-02 15:31N 47°32' W 122°39'0 0.0
2015-Jul-02 14:28N 47°32' W 122°39'0 0.0
2015-Jul-02 13:31N 47°32' W 122°39'0 0.0
2015-Jul-02 12:31N 47°32' W 122°39'0 0.0
2015-Jul-02 11:31N 47°32' W 122°39'0 0.0
2015-Jul-02 10:31N 47°32' W 122°39'0 0.0
2015-Jul-02 09:31N 47°32' W 122°39'0 0.0
2015-Jul-02 08:31N 47°32' W 122°39'0 0.0
2015-Jul-02 07:31N 47°32' W 122°39'0 0.0
2015-Jul-02 06:31N 47°32' W 122°39'0 0.0
2015-Jul-02 05:31N 47°32' W 122°39'0 0.0
2015-Jul-02 04:31N 47°32' W 122°39'0 0.0
2015-Jul-02 03:31N 47°32' W 122°39'0 0.0
2015-Jul-02 02:31N 47°32' W 122°39'0 0.0
2015-Jul-02 01:31N 47°32' W 122°39'0 0.0
2015-Jul-02 00:31N 47°32' W 122°39'0 0.0
2015-Jul-01 23:31N 47°32' W 122°39'0 0.0
2015-Jul-01 22:31N 47°32' W 122°39'0 0.0
2015-Jul-01 21:31N 47°32' W 122°39'0 0.0
2015-Jul-01 20:31N 47°32' W 122°39'0 0.0
2015-Jul-01 19:31N 47°32' W 122°39'0 0.0
2015-Jul-01 18:31N 47°32' W 122°39'0 0.0
2015-Jul-01 17:31N 47°32' W 122°39'0 0.0
2015-Jul-01 16:31N 47°32' W 122°39'0 0.0
2015-Jul-01 15:31N 47°32' W 122°39'0 0.0
2015-Jul-01 14:31N 47°32' W 122°39'0 0.0
2015-Jul-01 13:31N 47°32' W 122°39'0 0.0
2015-Jul-01 12:31N 47°32' W 122°39'0 0.0
2015-Jul-01 11:31N 47°32' W 122°39'0 0.0
2015-Jul-01 10:31N 47°32' W 122°39'0 0.0
2015-Jul-01 09:31N 47°32' W 122°39'0 0.0
2015-Jul-01 08:31N 47°32' W 122°39'0 0.0
2015-Jul-01 07:31N 47°32' W 122°39'0 0.0
2015-Jul-01 06:31N 47°32' W 122°39'0 0.0
2015-Jul-01 05:31N 47°32' W 122°39'0 0.0
2015-Jul-01 04:31N 47°32' W 122°39'0 0.0
2015-Jul-01 03:31N 47°32' W 122°39'0 0.0
2015-Jul-01 02:31N 47°32' W 122°39'0 0.0
2015-Jul-01 01:49N 47°32' W 122°39'0 0.0
2015-Jul-01 01:31N 47°32' W 122°39'0 0.0
2015-Jul-01 00:31N 47°32' W 122°39'0 0.0
2015-Jul-01 00:28N 47°32' W 122°39'0 0.0
2015-Jun-30 23:31N 47°32' W 122°39'0 0.0
2015-Jun-30 23:07N 47°32' W 122°39'0 0.0
2015-Jun-30 22:31N 47°32' W 122°39'0 0.0
2015-Jun-30 21:31N 47°32' W 122°39'0 0.0
2015-Jun-30 20:31N 47°32' W 122°39'0 0.0
2015-Jun-30 19:31N 47°32' W 122°39'0 0.0
2015-Jun-30 18:31N 47°32' W 122°39'0 0.0
2015-Jun-30 17:31N 47°32' W 122°39'0 0.0
2015-Jun-30 16:31N 47°32' W 122°39'0 0.0
2015-Jun-30 15:31N 47°32' W 122°39'0 0.0
2015-Jun-30 14:31N 47°32' W 122°39'0 0.0
2015-Jun-30 13:31N 47°32' W 122°39'0 0.0
2015-Jun-30 12:31N 47°32' W 122°39'0 0.0
2015-Jun-30 11:31N 47°32' W 122°39'0 0.0
2015-Jun-30 10:31N 47°32' W 122°39'0 0.0
2015-Jun-30 09:31N 47°32' W 122°39'0 0.0
2015-Jun-30 08:31N 47°32' W 122°39'0 0.0
2015-Jun-30 07:52N 47°32' W 122°39'0 0.0
2015-Jun-30 07:31N 47°32' W 122°39'0 0.0
2015-Jun-30 06:52N 47°32' W 122°39'0 0.0
2015-Jun-30 06:31N 47°32' W 122°39'0 0.0
2015-Jun-30 06:22N 47°32' W 122°39'0 0.0
2015-Jun-30 05:31N 47°32' W 122°39'0 0.0
2015-Jun-30 04:31N 47°32' W 122°39'0 0.0
2015-Jun-30 03:46N 47°32' W 122°39'0 0.0
2015-Jun-30 03:31N 47°32' W 122°39'0 0.0
2015-Jun-30 02:31N 47°32' W 122°39'0 0.0
2015-Jun-30 01:31N 47°32' W 122°39'0 0.0
2015-Jun-30 00:31N 47°32' W 122°39'0 0.0
2015-Jun-29 23:31N 47°32' W 122°39'0 0.0
2015-Jun-29 23:25N 47°32' W 122°39'0 0.0
2015-Jun-29 22:31N 47°32' W 122°39'0 0.0
2015-Jun-29 21:31N 47°32' W 122°39'0 0.0
2015-Jun-29 20:52N 47°32' W 122°39'0 0.0
2015-Jun-29 20:31N 47°32' W 122°39'0 0.0
2015-Jun-29 20:22N 47°32' W 122°39'0 0.0
2015-Jun-29 19:31N 47°32' W 122°39'0 0.0
2015-Jun-29 18:31N 47°32' W 122°39'0 0.0
2015-Jun-29 17:31N 47°32' W 122°39'0 0.0
2015-Jun-29 16:31N 47°32' W 122°39'0 0.0
2015-Jun-29 15:31N 47°32' W 122°39'0 0.0
2015-Jun-29 15:16N 47°32' W 122°39'0 0.0
2015-Jun-29 14:31N 47°32' W 122°39'0 0.0
2015-Jun-29 13:31N 47°32' W 122°39'0 0.0
2015-Jun-29 12:28N 47°32' W 122°39'0 0.0
2015-Jun-29 11:31N 47°32' W 122°39'0 0.0
2015-Jun-29 10:31N 47°32' W 122°39'0 0.0
2015-Jun-29 09:55N 47°32' W 122°39'0 0.0
2015-Jun-29 09:31N 47°32' W 122°39'0 0.0
2015-Jun-29 09:10N 47°32' W 122°39'0 0.0
2015-Jun-29 08:31N 47°32' W 122°39'0 0.0
2015-Jun-29 08:25N 47°32' W 122°39'0 0.0
2015-Jun-29 07:31N 47°32' W 122°39'0 0.0
2015-Jun-29 06:31N 47°32' W 122°39'0 0.0
2015-Jun-29 05:31N 47°32' W 122°39'0 0.0
2015-Jun-29 04:31N 47°32' W 122°39'0 0.0
2015-Jun-29 03:31N 47°32' W 122°39'0 0.0
2015-Jun-29 02:31N 47°32' W 122°39'0 0.0
2015-Jun-29 01:28N 47°32' W 122°39'0 0.0
2015-Jun-29 00:31N 47°32' W 122°39'0 0.0
2015-Jun-28 23:31N 47°32' W 122°39'0 0.0
2015-Jun-28 22:28N 47°32' W 122°39'0 0.0
2015-Jun-28 21:31N 47°32' W 122°39'0 0.0
2015-Jun-28 20:31N 47°32' W 122°39'0 0.0
2015-Jun-28 19:31N 47°32' W 122°39'0 0.0
2015-Jun-28 18:28N 47°32' W 122°39'0 0.0
2015-Jun-28 17:31N 47°32' W 122°39'0 0.0
2015-Jun-28 16:31N 47°32' W 122°39'0 0.0
2015-Jun-28 15:31N 47°32' W 122°39'0 0.0
2015-Jun-28 14:31N 47°32' W 122°39'0 0.0
2015-Jun-28 13:31N 47°32' W 122°39'0 0.0
2015-Jun-28 12:31N 47°32' W 122°39'0 0.0
2015-Jun-28 11:31N 47°32' W 122°39'0 0.0
2015-Jun-28 10:31N 47°32' W 122°39'0 0.0
2015-Jun-28 09:31N 47°32' W 122°39'0 0.0
2015-Jun-28 08:31N 47°32' W 122°39'0 0.0
2015-Jun-28 07:31N 47°32' W 122°39'0 0.0
2015-Jun-28 06:31N 47°32' W 122°39'0 0.0
2015-Jun-28 05:28N 47°32' W 122°39'0 0.0
2015-Jun-28 04:31N 47°32' W 122°39'0 0.0
2015-Jun-28 03:31N 47°32' W 122°39'0 0.0
2015-Jun-28 02:31N 47°32' W 122°39'0 0.0
2015-Jun-28 01:31N 47°32' W 122°39'0 0.0
2015-Jun-28 00:31N 47°32' W 122°39'0 0.0
2015-Jun-28 00:13N 47°32' W 122°39'0 0.0
2015-Jun-27 23:31N 47°32' W 122°39'0 0.0
2015-Jun-27 22:31N 47°32' W 122°39'0 0.0
2015-Jun-27 21:31N 47°32' W 122°39'0 0.0
2015-Jun-27 20:31N 47°32' W 122°39'0 0.0
2015-Jun-27 19:25N 47°32' W 122°39'0 0.0
2015-Jun-27 18:31N 47°32' W 122°39'0 0.0
2015-Jun-27 17:31N 47°32' W 122°39'0 0.0
2015-Jun-27 16:31N 47°32' W 122°39'0 0.0
2015-Jun-27 15:31N 47°32' W 122°39'0 0.0
2015-Jun-27 14:31N 47°32' W 122°39'0 0.0
2015-Jun-27 13:31N 47°32' W 122°39'0 0.0
2015-Jun-27 12:31N 47°32' W 122°39'0 0.0
2015-Jun-27 11:31N 47°32' W 122°39'0 0.0
2015-Jun-27 10:31N 47°32' W 122°39'  

Dump ship's entire track history